createdAt,value
2023-03-05T00:03:16.355Z,28.29
2023-03-05T00:07:16.196Z,28.29
2023-03-05T00:11:16.183Z,28.30
2023-03-05T00:15:16.149Z,28.31
2023-03-05T00:19:16.127Z,28.31
2023-03-05T00:23:16.032Z,28.32
2023-03-05T00:27:16.116Z,28.33
2023-03-05T00:31:16.331Z,28.31
2023-03-05T00:35:16.327Z,28.33
2023-03-05T00:39:16.454Z,28.35
2023-03-05T00:43:16.544Z,28.34
2023-03-05T00:47:16.673Z,28.32
2023-03-05T00:51:16.744Z,28.35
2023-03-05T00:55:16.785Z,28.36
2023-03-05T00:59:16.870Z,28.37
2023-03-05T01:03:16.978Z,28.36
2023-03-05T01:07:17.066Z,28.35
2023-03-05T01:11:17.200Z,28.35
2023-03-05T01:15:17.303Z,28.35
2023-03-05T01:19:18.546Z,28.37
2023-03-05T01:23:17.475Z,28.37
2023-03-05T01:27:17.586Z,28.35
2023-03-05T01:31:17.734Z,28.36
2023-03-05T01:35:17.784Z,28.36
2023-03-05T01:39:17.835Z,28.36
2023-03-05T01:43:17.786Z,28.37
2023-03-05T01:47:17.771Z,28.37
2023-03-05T01:51:17.798Z,28.38
2023-03-05T01:55:17.766Z,28.37
2023-03-05T01:59:17.700Z,28.40
2023-03-05T02:03:17.701Z,28.38
2023-03-05T02:07:17.707Z,28.39
2023-03-05T02:11:17.770Z,28.37
2023-03-05T02:15:17.713Z,28.40
2023-03-05T02:19:17.724Z,28.38
2023-03-05T02:23:17.713Z,28.38
2023-03-05T02:27:17.691Z,28.40
2023-03-05T02:31:17.763Z,28.40
2023-03-05T02:35:17.784Z,28.40
2023-03-05T02:39:17.765Z,28.41
2023-03-05T02:43:17.698Z,28.42
2023-03-05T02:47:17.677Z,28.40
2023-03-05T02:51:17.660Z,28.42
2023-03-05T02:55:17.729Z,28.43
2023-03-05T02:59:17.722Z,28.43
2023-03-05T03:03:17.769Z,28.41
2023-03-05T03:07:17.707Z,28.43
2023-03-05T03:11:17.671Z,28.42
2023-03-05T03:15:17.661Z,28.42
2023-03-05T03:19:17.694Z,28.42
2023-03-05T03:23:17.778Z,28.43
2023-03-05T03:27:17.740Z,28.44
2023-03-05T03:31:17.843Z,28.44
2023-03-05T03:35:17.793Z,28.44
2023-03-05T03:39:17.792Z,28.43
2023-03-05T03:43:17.722Z,28.45
2023-03-05T03:47:17.750Z,28.42
2023-03-05T03:51:17.747Z,28.42
2023-03-05T03:55:17.733Z,28.45
2023-03-05T03:59:17.754Z,28.44
2023-03-05T04:03:17.777Z,28.45
2023-03-05T04:07:17.768Z,28.43
2023-03-05T04:11:17.746Z,28.47
2023-03-05T04:15:17.776Z,28.45
2023-03-05T04:19:17.763Z,28.44
2023-03-05T04:23:17.772Z,28.44
2023-03-05T04:27:17.744Z,28.46
2023-03-05T04:31:17.842Z,28.44
2023-03-05T04:35:17.815Z,28.46
2023-03-05T04:39:17.772Z,28.45
2023-03-05T04:43:17.752Z,28.46
2023-03-05T04:47:17.739Z,28.48
2023-03-05T04:51:17.773Z,28.48
2023-03-05T04:55:17.752Z,28.48
2023-03-05T04:59:17.816Z,28.48
2023-03-05T05:03:17.863Z,28.47
2023-03-05T05:07:17.849Z,28.50
2023-03-05T05:11:17.850Z,28.49
2023-03-05T05:15:17.873Z,28.48
2023-03-05T05:19:17.870Z,28.51
2023-03-05T05:23:17.895Z,28.47
2023-03-05T05:27:17.898Z,28.49
2023-03-05T05:31:18.015Z,28.49
2023-03-05T05:35:18.016Z,28.50
2023-03-05T05:39:20.175Z,28.50
2023-03-05T05:43:18.061Z,28.50
2023-03-05T05:47:18.101Z,28.49
2023-03-05T05:51:18.113Z,28.52
2023-03-05T05:55:18.132Z,28.49
2023-03-05T05:59:18.157Z,28.52
2023-03-05T06:03:18.222Z,28.51
2023-03-05T06:07:18.219Z,28.52
2023-03-05T06:11:19.434Z,28.53
2023-03-05T06:15:18.267Z,28.54
2023-03-05T06:19:18.286Z,28.52
2023-03-05T06:23:18.322Z,28.52
2023-03-05T06:27:18.381Z,28.53
2023-03-05T06:31:18.388Z,28.52
2023-03-05T06:35:18.453Z,28.54
2023-03-05T06:39:18.512Z,28.51
2023-03-05T06:43:18.496Z,28.51
2023-03-05T06:47:18.544Z,28.55
2023-03-05T06:51:18.619Z,28.54
2023-03-05T06:55:18.594Z,28.54
2023-03-05T06:59:18.684Z,28.57
2023-03-05T07:03:18.698Z,28.56
2023-03-05T07:07:18.781Z,28.53
2023-03-05T07:11:18.823Z,28.53
2023-03-05T07:15:18.861Z,28.54
2023-03-05T07:19:18.977Z,28.53
2023-03-05T07:23:18.889Z,28.53
2023-03-05T07:27:18.937Z,28.55
2023-03-05T07:31:19.085Z,28.54
2023-03-05T07:35:19.037Z,28.53
2023-03-05T07:39:19.073Z,28.52
2023-03-05T07:43:19.119Z,28.54
2023-03-05T07:47:19.157Z,28.53
2023-03-05T07:51:19.230Z,28.51
2023-03-05T07:55:19.266Z,28.51
2023-03-05T07:59:19.301Z,28.52
2023-03-05T08:03:19.275Z,28.49
2023-03-05T08:07:19.352Z,28.48
2023-03-05T08:11:19.400Z,28.48
2023-03-05T08:15:19.407Z,28.46
2023-03-05T08:19:19.424Z,28.48
2023-03-05T08:23:19.455Z,28.47
2023-03-05T08:27:19.479Z,28.45
2023-03-05T08:31:19.565Z,28.45
2023-03-05T08:35:19.559Z,28.44
2023-03-05T08:39:19.599Z,28.45
2023-03-05T08:43:19.532Z,28.42
2023-03-05T08:47:19.595Z,28.42
2023-03-05T08:51:19.552Z,28.39
2023-03-05T08:55:19.569Z,28.40
2023-03-05T08:59:19.545Z,28.37
2023-03-05T09:03:19.546Z,28.37
2023-03-05T09:07:19.561Z,28.38
2023-03-05T09:11:19.518Z,28.34
2023-03-05T09:15:19.495Z,28.36
2023-03-05T09:19:19.487Z,28.34
2023-03-05T09:23:19.505Z,28.33
2023-03-05T09:27:19.621Z,28.33
2023-03-05T09:31:19.841Z,28.32
2023-03-05T09:35:19.987Z,28.31
2023-03-05T09:39:19.974Z,28.29
2023-03-05T09:43:20.089Z,28.28
2023-03-05T09:47:20.119Z,28.27
2023-03-05T09:51:20.198Z,28.27
2023-03-05T09:55:20.218Z,28.25
2023-03-05T09:59:20.323Z,28.23
2023-03-05T10:03:20.471Z,28.23
2023-03-05T10:07:20.599Z,28.23
2023-03-05T10:11:20.747Z,28.23
2023-03-05T10:15:20.879Z,28.21
2023-03-05T10:19:21.185Z,28.20
2023-03-05T10:23:21.863Z,28.21
2023-03-05T10:27:21.148Z,28.20
2023-03-05T10:31:21.045Z,28.18
2023-03-05T10:35:20.968Z,28.17
2023-03-05T10:39:20.925Z,28.21
2023-03-05T10:43:20.922Z,28.19
2023-03-05T10:47:20.863Z,28.22
2023-03-05T10:51:21.036Z,28.20
2023-03-05T10:55:21.232Z,28.22
2023-03-05T10:59:21.386Z,28.18
2023-03-05T11:03:21.584Z,28.18
2023-03-05T11:07:21.780Z,28.17
2023-03-05T11:11:22.017Z,28.15
2023-03-05T11:15:22.139Z,28.14
2023-03-05T11:19:22.316Z,28.13
2023-03-05T11:23:22.508Z,28.09
2023-03-05T11:27:22.707Z,28.07
2023-03-05T11:31:22.859Z,28.08
2023-03-05T11:35:23.036Z,28.07
2023-03-05T11:39:23.164Z,28.05
2023-03-05T11:43:23.307Z,28.03
2023-03-05T11:47:23.465Z,28.00
2023-03-05T11:51:23.769Z,27.99
2023-03-05T11:55:23.751Z,28.00
2023-03-05T11:59:23.876Z,27.98
2023-03-05T12:03:24.034Z,27.98
2023-03-05T12:07:24.110Z,27.98
2023-03-05T12:11:24.270Z,27.95
2023-03-05T12:15:24.449Z,27.91
2023-03-05T12:19:24.588Z,27.94
2023-03-05T12:23:24.702Z,27.91
2023-03-05T12:27:24.834Z,27.93
2023-03-05T12:31:25.000Z,27.88
2023-03-05T12:35:25.168Z,27.91
2023-03-05T12:39:25.181Z,27.89
2023-03-05T12:43:25.282Z,27.89
2023-03-05T12:47:25.380Z,27.88
2023-03-05T12:51:25.513Z,27.86
2023-03-05T12:55:25.572Z,27.85
2023-03-05T12:59:25.749Z,27.86
2023-03-05T13:03:25.891Z,27.86
2023-03-05T13:07:25.928Z,27.85
2023-03-05T13:11:25.962Z,27.83
2023-03-05T13:15:26.034Z,27.85
2023-03-05T13:19:26.163Z,27.82
2023-03-05T13:23:26.239Z,27.83
2023-03-05T13:27:26.316Z,27.81
2023-03-05T13:31:26.407Z,27.83
2023-03-05T13:35:26.450Z,27.80
2023-03-05T13:39:26.532Z,27.82
2023-03-05T13:43:26.523Z,27.79
2023-03-05T13:47:26.631Z,27.79
2023-03-05T13:51:26.681Z,27.81
2023-03-05T13:55:26.721Z,27.81
2023-03-05T13:59:26.763Z,27.77
2023-03-05T14:03:26.829Z,27.78
2023-03-05T14:07:26.869Z,27.77
2023-03-05T14:11:26.933Z,27.75
2023-03-05T14:15:26.942Z,27.79
2023-03-05T14:19:26.989Z,27.78
2023-03-05T14:23:27.294Z,27.79
2023-03-05T14:27:27.038Z,27.80
2023-03-05T14:31:27.119Z,27.79
2023-03-05T14:35:27.180Z,27.80
2023-03-05T14:39:27.227Z,27.80
2023-03-05T14:43:27.202Z,27.80
2023-03-05T14:47:27.290Z,27.82
2023-03-05T14:51:27.312Z,27.78
2023-03-05T14:55:27.367Z,27.77
2023-03-05T14:59:27.364Z,27.76
2023-03-05T15:03:27.435Z,27.77
2023-03-05T15:07:27.486Z,27.78
2023-03-05T15:11:27.521Z,27.76
2023-03-05T15:15:27.529Z,27.76
2023-03-05T15:19:27.530Z,27.75
2023-03-05T15:23:27.566Z,27.74
2023-03-05T15:27:27.613Z,27.73
2023-03-05T15:31:27.602Z,27.73
2023-03-05T15:35:27.689Z,27.72
2023-03-05T15:39:27.720Z,27.72
2023-03-05T15:43:27.664Z,27.73
2023-03-05T15:47:27.768Z,27.72
2023-03-05T15:51:27.708Z,27.71
2023-03-05T15:55:27.738Z,27.71
2023-03-05T15:59:27.907Z,27.70
2023-03-05T16:03:27.905Z,27.69
2023-03-05T16:07:27.895Z,27.70
2023-03-05T16:11:27.942Z,27.65
2023-03-05T16:15:27.989Z,27.69
2023-03-05T16:19:28.003Z,27.69
2023-03-05T16:23:28.047Z,27.72
2023-03-05T16:27:28.070Z,27.70
2023-03-05T16:31:28.121Z,27.71
2023-03-05T16:35:28.175Z,27.73
2023-03-05T16:39:28.165Z,27.72
2023-03-05T16:43:28.183Z,27.73
2023-03-05T16:47:28.277Z,27.76
2023-03-05T16:51:28.267Z,27.78
2023-03-05T16:55:28.301Z,27.78
2023-03-05T16:59:28.327Z,27.77
2023-03-05T17:03:28.562Z,27.82
2023-03-05T17:07:28.426Z,27.83
2023-03-05T17:11:28.454Z,27.85
2023-03-05T17:15:28.508Z,27.84
2023-03-05T17:19:28.546Z,27.87
2023-03-05T17:23:28.589Z,27.90
2023-03-05T17:27:28.690Z,27.93
2023-03-05T17:31:28.744Z,27.92
2023-03-05T17:35:28.836Z,27.92
2023-03-05T17:39:28.871Z,27.93
2023-03-05T17:43:28.946Z,28.01
2023-03-05T17:47:29.005Z,27.96
2023-03-05T17:51:29.097Z,27.99
2023-03-05T17:55:29.189Z,27.98
2023-03-05T17:59:29.270Z,28.04
2023-03-05T18:03:29.382Z,28.05
2023-03-05T18:07:29.492Z,28.08
2023-03-05T18:11:29.606Z,28.06
2023-03-05T18:15:29.755Z,28.08
2023-03-05T18:19:29.842Z,28.12
2023-03-05T18:23:29.959Z,28.15
2023-03-05T18:27:30.093Z,28.16
2023-03-05T18:31:30.255Z,28.17
2023-03-05T18:35:30.373Z,28.18
2023-03-05T18:39:30.474Z,28.19
2023-03-05T18:43:30.611Z,28.22
2023-03-05T18:47:30.748Z,28.22
2023-03-05T18:51:30.848Z,28.24
2023-03-05T18:55:31.047Z,28.24
2023-03-05T18:59:31.122Z,28.27
2023-03-05T19:03:31.266Z,28.28
2023-03-05T19:07:31.443Z,28.30
2023-03-05T19:11:31.619Z,28.31
2023-03-05T19:15:31.804Z,28.33
2023-03-05T19:19:31.882Z,28.33
2023-03-05T19:23:32.042Z,28.35
2023-03-05T19:27:32.225Z,28.34
2023-03-05T19:31:32.367Z,28.35
2023-03-05T19:35:32.649Z,28.37
2023-03-05T19:39:32.679Z,28.37
2023-03-05T19:43:32.820Z,28.39
2023-03-05T19:47:32.958Z,28.40
2023-03-05T19:51:33.100Z,28.42
2023-03-05T19:55:33.283Z,28.43
2023-03-05T19:59:33.484Z,28.42
2023-03-05T20:03:33.622Z,28.43
2023-03-05T20:07:33.810Z,28.44
2023-03-05T20:11:33.960Z,28.45
2023-03-05T20:15:34.118Z,28.46
2023-03-05T20:19:34.305Z,28.47
2023-03-05T20:23:34.536Z,28.47
2023-03-05T20:27:34.737Z,28.47
2023-03-05T20:31:34.981Z,28.50
2023-03-05T20:35:35.132Z,28.52
2023-03-05T20:39:35.320Z,28.49
2023-03-05T20:43:35.559Z,28.52
2023-03-05T20:47:35.716Z,28.51
2023-03-05T20:51:35.964Z,28.54
2023-03-05T20:55:36.146Z,28.55
2023-03-05T20:59:36.388Z,28.54
2023-03-05T21:03:36.367Z,28.55
2023-03-05T21:07:36.344Z,28.55
2023-03-05T21:11:36.255Z,28.55
2023-03-05T21:15:36.250Z,28.56
2023-03-05T21:19:36.242Z,28.60
2023-03-05T21:23:36.188Z,28.57
2023-03-05T21:27:36.125Z,28.58
2023-03-05T21:31:36.049Z,28.59
2023-03-05T21:35:36.070Z,28.57
2023-03-05T21:39:36.069Z,28.59
2023-03-05T21:43:36.091Z,28.62
2023-03-05T21:47:35.947Z,28.61
2023-03-05T21:51:35.963Z,28.62
2023-03-05T21:55:35.895Z,28.61
2023-03-05T21:59:35.870Z,28.61
2023-03-05T22:03:35.821Z,28.64
2023-03-05T22:07:35.819Z,28.64
2023-03-05T22:11:35.741Z,28.62
2023-03-05T22:15:35.721Z,28.62
2023-03-05T22:19:35.858Z,28.64
2023-03-05T22:23:35.774Z,28.63
2023-03-05T22:27:35.746Z,28.66
2023-03-05T22:31:35.686Z,28.65
2023-03-05T22:35:35.666Z,28.66
2023-03-05T22:39:35.630Z,28.65
2023-03-05T22:43:35.585Z,28.66
2023-03-05T22:47:35.527Z,28.69
2023-03-05T22:51:35.523Z,28.68
2023-03-05T22:55:35.430Z,28.65
2023-03-05T22:59:35.699Z,28.69
2023-03-05T23:03:35.440Z,28.67
2023-03-05T23:07:35.345Z,28.69
2023-03-05T23:11:35.357Z,28.69
2023-03-05T23:15:35.349Z,28.70
2023-03-05T23:19:35.241Z,28.70
2023-03-05T23:23:35.254Z,28.70
2023-03-05T23:27:35.314Z,28.72
2023-03-05T23:31:35.769Z,28.72
2023-03-05T23:35:35.414Z,28.72
2023-03-05T23:39:35.364Z,28.74
2023-03-05T23:43:35.379Z,28.75
2023-03-05T23:47:35.346Z,28.74
2023-03-05T23:51:35.401Z,28.76
2023-03-05T23:55:35.386Z,28.75
2023-03-05T23:59:35.374Z,28.75
